Time;durP1;ratioP1;P1;durP2;ratioP2;P2;SDS_P1;SDS_P2;PMS_P1;PMS_P2;Temp;Humidity;BMP_temperature;BMP_pressure;BME280_temperature;BME280_humidity;BME280_pressure;Samples;Min_cycle;Max_cycle;Signal;HPM_P1;HPM_P2
2021/11/13 00:00:20;;;;;;;25.08;17.17;;;8.80;95.40;;;;;;5052124;28;20025;-76
2021/11/13 00:02:46;;;;;;;26.25;16.83;;;8.70;95.40;;;;;;5050351;28;20024;-76
2021/11/13 00:05:12;;;;;;;26.90;16.30;;;8.70;95.40;;;;;;5051572;28;20624;-76
2021/11/13 00:07:38;;;;;;;26.80;18.08;;;8.70;95.40;;;;;;5052681;28;20033;-76
2021/11/13 00:10:05;;;;;;;27.20;17.42;;;8.70;95.50;;;;;;5034993;28;20790;-76
2021/11/13 00:12:31;;;;;;;30.23;17.92;;;8.70;95.50;;;;;;5052081;28;20037;-76
2021/11/13 00:14:58;;;;;;;30.60;18.58;;;8.70;95.60;;;;;;5051877;28;20036;-76
2021/11/13 00:17:24;;;;;;;31.58;18.13;;;8.80;95.70;;;;;;5049999;28;20033;-76
2021/11/13 00:19:49;;;;;;;32.78;18.38;;;8.70;95.70;;;;;;5042756;28;20035;-76
2021/11/13 00:22:15;;;;;;;29.45;18.50;;;8.70;95.80;;;;;;5052046;28;20029;-75
2021/11/13 00:24:41;;;;;;;35.08;19.50;;;8.70;95.90;;;;;;5033974;28;20462;-76
2021/11/13 00:27:07;;;;;;;33.95;19.10;;;8.70;95.90;;;;;;5051201;28;20116;-76
2021/11/13 00:29:33;;;;;;;34.88;20.20;;;8.80;96.00;;;;;;5051095;28;20036;-76
2021/11/13 00:31:59;;;;;;;25.73;17.95;;;8.80;96.00;;;;;;5048763;28;20821;-76
2021/11/13 00:34:25;;;;;;;40.60;21.60;;;8.70;96.00;;;;;;5050609;28;20516;-76
2021/11/13 00:36:52;;;;;;;29.25;18.92;;;8.70;96.10;;;;;;5050480;28;20102;-75
2021/11/13 00:39:18;;;;;;;29.90;19.50;;;8.80;96.10;;;;;;5052021;28;20021;-76
2021/11/13 00:41:43;;;;;;;35.53;20.45;;;8.70;96.20;;;;;;5050877;28;20058;-76
2021/11/13 00:44:10;;;;;;;34.50;19.52;;;8.70;96.20;;;;;;5052269;28;20393;-75
2021/11/13 00:46:36;;;;;;;33.67;21.05;;;8.70;96.50;;;;;;5051333;28;20737;-76
2021/11/13 00:49:05;;;;;;;37.42;20.98;;;8.70;96.30;;;;;;5052443;28;20033;-76
2021/11/13 00:51:31;;;;;;;37.27;21.87;;;8.70;96.40;;;;;;5036811;28;20036;-76
2021/11/13 00:53:57;;;;;;;37.30;20.98;;;8.80;96.40;;;;;;5053055;28;20813;-76
2021/11/13 00:56:22;;;;;;;37.92;21.35;;;8.80;96.40;;;;;;5051274;28;20040;-76
2021/11/13 00:58:48;;;;;;;38.58;22.10;;;8.80;96.50;;;;;;5051950;28;20029;-76
2021/11/13 01:01:14;;;;;;;43.80;21.60;;;8.80;96.80;;;;;;5052491;28;20024;-76
2021/11/13 01:03:40;;;;;;;37.40;21.85;;;8.80;96.50;;;;;;5051667;28;20746;-76
2021/11/13 01:06:05;;;;;;;46.40;24.17;;;8.90;96.60;;;;;;5034655;28;20032;-76
2021/11/13 01:08:31;;;;;;;43.75;23.65;;;8.80;96.70;;;;;;5051766;28;20041;-76
2021/11/13 01:10:57;;;;;;;43.70;24.05;;;8.80;96.70;;;;;;5051623;28;20397;-76
2021/11/13 01:13:23;;;;;;;47.38;24.52;;;8.80;96.80;;;;;;5051567;28;20029;-76
2021/11/13 01:15:49;;;;;;;46.15;25.08;;;8.80;96.80;;;;;;5053119;28;20045;-76
2021/11/13 01:18:15;;;;;;;48.08;23.45;;;8.90;96.90;;;;;;5052714;28;20040;-76
2021/11/13 01:20:41;;;;;;;40.35;23.75;;;8.80;96.90;;;;;;5052950;28;20090;-76
2021/11/13 01:23:07;;;;;;;46.00;25.33;;;8.80;96.90;;;;;;5052326;28;20033;-76
2021/11/13 01:25:33;;;;;;;54.00;26.55;;;8.90;97.00;;;;;;5051373;28;20025;-76
2021/11/13 01:27:59;;;;;;;45.85;25.23;;;8.90;97.00;;;;;;5051728;28;20075;-76
2021/11/13 01:30:25;;;;;;;46.03;25.95;;;8.90;97.10;;;;;;5050942;28;20048;-76
2021/11/13 01:32:51;;;;;;;47.65;25.50;;;8.90;97.10;;;;;;5051504;28;20045;-76
2021/11/13 01:35:19;;;;;;;43.13;25.48;;;8.90;97.20;;;;;;5052132;28;20037;-76
2021/11/13 01:37:45;;;;;;;58.42;28.65;;;8.90;97.20;;;;;;5050673;28;20078;-76
2021/11/13 01:40:14;;;;;;;47.22;26.67;;;8.90;97.30;;;;;;5049435;28;20477;-77
2021/11/13 01:42:40;;;;;;;50.20;27.17;;;8.90;97.30;;;;;;5048613;28;20021;-76
2021/11/13 01:45:07;;;;;;;56.47;29.35;;;8.90;97.40;;;;;;5048670;28;20029;-76
2021/11/13 01:47:33;;;;;;;52.80;26.50;;;8.90;97.50;;;;;;5050027;28;20504;-76
2021/11/13 01:49:59;;;;;;;47.05;26.25;;;8.90;97.50;;;;;;5048740;28;20048;-76
2021/11/13 01:52:25;;;;;;;51.17;27.27;;;8.90;97.50;;;;;;5048278;28;20041;-76
2021/11/13 01:54:51;;;;;;;44.95;25.20;;;9.00;97.50;;;;;;5048226;28;20090;-76
2021/11/13 01:57:21;;;;;;;51.70;26.63;;;9.00;97.50;;;;;;5045912;28;20036;-76
2021/11/13 01:59:49;;;;;;;49.78;26.85;;;9.00;97.60;;;;;;5050488;28;20032;-76
2021/11/13 02:02:16;;;;;;;54.95;26.70;;;9.00;97.60;;;;;;5050737;28;20024;-76
2021/11/13 02:04:42;;;;;;;54.20;26.00;;;9.00;97.60;;;;;;5051514;28;20025;-77
2021/11/13 02:07:08;;;;;;;48.10;26.77;;;9.10;97.60;;;;;;5035783;28;20036;-77
2021/11/13 02:09:33;;;;;;;46.88;24.77;;;9.00;97.60;;;;;;5052374;28;20033;-77
2021/11/13 02:11:59;;;;;;;54.90;26.55;;;9.00;97.60;;;;;;5053419;28;20044;-77
2021/11/13 02:14:28;;;;;;;52.20;25.80;;;9.10;97.70;;;;;;5051893;28;20064;-78
2021/11/13 02:16:54;;;;;;;49.42;24.92;;;9.00;97.70;;;;;;5051547;28;20040;-77
2021/11/13 02:19:19;;;;;;;50.50;25.92;;;9.00;97.70;;;;;;5053469;28;20025;-77
2021/11/13 02:21:46;;;;;;;48.75;24.10;;;9.10;97.70;;;;;;5049781;28;20028;-78
2021/11/13 02:24:11;;;;;;;55.33;27.38;;;9.10;97.70;;;;;;5052655;28;20457;-78
2021/11/13 02:26:38;;;;;;;54.42;28.38;;;9.10;97.70;;;;;;5052235;28;20090;-78
2021/11/13 02:29:04;;;;;;;61.83;29.92;;;9.10;97.80;;;;;;5035379;28;20857;-78
2021/11/13 02:31:42;;;;;;;58.20;27.27;;;9.10;97.80;;;;;;5051868;28;20037;-78
2021/11/13 02:34:10;;;;;;;54.35;26.58;;;9.10;97.80;;;;;;5051655;28;20049;-78
2021/11/13 02:36:36;;;;;;;61.17;28.37;;;9.10;97.80;;;;;;5052947;28;20052;-78
2021/11/13 02:39:06;;;;;;;65.28;31.38;;;9.10;97.90;;;;;;5051483;28;20033;-78
2021/11/13 02:41:31;;;;;;;60.35;28.92;;;9.10;97.90;;;;;;5050681;28;20021;-78
2021/11/13 02:43:58;;;;;;;57.47;27.17;;;9.20;97.90;;;;;;5052243;28;20033;-78
2021/11/13 02:46:25;;;;;;;65.53;30.50;;;9.10;97.90;;;;;;5051506;28;20136;-78
2021/11/13 02:48:51;;;;;;;69.95;30.08;;;9.20;98.00;;;;;;5047915;28;20033;-78
2021/11/13 02:51:16;;;;;;;64.75;29.98;;;9.10;98.00;;;;;;5048294;28;20024;-78
2021/11/13 02:53:46;;;;;;;69.50;32.00;;;9.20;98.10;;;;;;5030381;28;20574;-78
2021/11/13 02:56:12;;;;;;;75.82;30.98;;;9.20;98.40;;;;;;5048764;28;20724;-78
2021/11/13 02:58:39;;;;;;;57.40;28.38;;;9.20;98.10;;;;;;5031010;28;20036;-78
2021/11/13 03:01:22;;;;;;;69.28;31.50;;;9.20;98.10;;;;;;5050266;28;20107;-78
2021/11/13 03:03:53;;;;;;;65.80;28.73;;;9.20;98.20;;;;;;5052039;28;20044;-78
2021/11/13 03:06:18;;;;;;;56.00;28.52;;;9.30;98.20;;;;;;5050897;28;20033;-78
2021/11/13 03:08:46;;;;;;;65.03;29.63;;;9.30;98.20;;;;;;5047827;28;20033;-78
2021/11/13 03:11:14;;;;;;;59.85;29.25;;;9.30;98.30;;;;;;5050510;28;20017;-78
2021/11/13 03:13:42;;;;;;;55.95;28.02;;;9.30;98.30;;;;;;5052494;28;20037;-78
2021/11/13 03:16:09;;;;;;;61.60;28.05;;;9.20;98.40;;;;;;5052344;28;20043;-78
2021/11/13 03:18:35;;;;;;;65.80;30.10;;;9.20;98.40;;;;;;5051171;28;20120;-78
2021/11/13 03:21:05;;;;;;;66.00;29.77;;;9.30;98.40;;;;;;5051009;28;20017;-78
2021/11/13 03:23:32;;;;;;;61.85;29.50;;;9.30;98.40;;;;;;5051255;28;20029;-78
2021/11/13 03:26:07;;;;;;;62.50;28.15;;;9.30;98.70;;;;;;5052067;28;20108;-78
2021/11/13 03:28:36;;;;;;;49.28;25.55;;;9.30;98.50;;;;;;5047199;28;20028;-78
2021/11/13 03:31:03;;;;;;;55.65;26.25;;;9.40;98.50;;;;;;5052442;28;20017;-78
2021/11/13 03:33:30;;;;;;;51.53;27.27;;;9.30;98.50;;;;;;5052176;28;20053;-77
2021/11/13 03:35:58;;;;;;;46.97;23.92;;;9.40;98.50;;;;;;5052177;28;20035;-78
2021/11/13 03:38:23;;;;;;;52.78;26.05;;;9.40;98.50;;;;;;5052234;28;20041;-78
2021/11/13 03:40:49;;;;;;;42.60;23.00;;;9.40;98.50;;;;;;5052342;28;20079;-78
2021/11/13 03:43:15;;;;;;;60.25;26.00;;;9.40;98.50;;;;;;5051020;28;20083;-78
2021/11/13 03:45:43;;;;;;;52.40;25.90;;;9.40;98.50;;;;;;5052225;28;20025;-78
2021/11/13 03:48:09;;;;;;;39.13;22.48;;;9.40;98.50;;;;;;5052075;28;20037;-78
2021/11/13 03:50:35;;;;;;;44.22;24.13;;;9.40;98.50;;;;;;5050989;28;20040;-78
2021/11/13 03:53:01;;;;;;;41.72;23.02;;;9.40;98.60;;;;;;5051015;28;20041;-78
2021/11/13 03:55:27;;;;;;;47.60;24.88;;;9.40;98.50;;;;;;5050615;28;20123;-78
2021/11/13 03:57:53;;;;;;;51.92;26.92;;;9.40;98.50;;;;;;5051085;28;20048;-78
2021/11/13 04:00:21;;;;;;;44.83;25.30;;;9.40;98.60;;;;;;5051862;28;20035;-78
2021/11/13 04:02:47;;;;;;;48.65;27.95;;;9.40;98.60;;;;;;5034126;28;20036;-78
2021/11/13 04:05:15;;;;;;;47.35;27.17;;;9.40;98.60;;;;;;5030479;28;20022;-78
2021/11/13 04:07:41;;;;;;;51.97;28.38;;;9.40;98.60;;;;;;5049853;28;20586;-78
2021/11/13 04:10:08;;;;;;;71.07;30.02;;;9.50;98.70;;;;;;5049934;28;20064;-78
2021/11/13 04:12:35;;;;;;;56.05;28.45;;;9.40;98.60;;;;;;5051714;28;20013;-78
2021/11/13 04:15:01;;;;;;;54.97;28.60;;;9.40;98.60;;;;;;5050934;28;20188;-78
2021/11/13 04:17:27;;;;;;;49.35;27.65;;;9.50;98.70;;;;;;5049406;28;20036;-78
2021/11/13 04:19:53;;;;;;;58.65;28.17;;;9.50;98.60;;;;;;5049541;28;20028;-78
2021/11/13 04:22:19;;;;;;;63.45;28.20;;;9.50;98.60;;;;;;5050797;28;20048;-78
2021/11/13 04:24:45;;;;;;;59.30;29.27;;;9.50;98.70;;;;;;5050298;28;20029;-78
2021/11/13 04:27:10;;;;;;;52.97;27.17;;;9.50;98.70;;;;;;5049375;28;20036;-78
2021/11/13 04:29:36;;;;;;;53.83;27.83;;;9.50;98.70;;;;;;5049874;28;20029;-78
2021/11/13 04:32:02;;;;;;;52.83;26.58;;;9.50;98.70;;;;;;5048717;28;20048;-78
2021/11/13 04:34:39;;;;;;;57.05;27.02;;;9.50;98.70;;;;;;5047855;28;20060;-78
2021/11/13 04:37:13;;;;;;;55.75;26.35;;;9.50;98.70;;;;;;5046262;28;20044;-77
2021/11/13 04:39:39;;;;;;;45.65;24.83;;;9.50;98.70;;;;;;5050540;28;20025;-78
2021/11/13 04:42:05;;;;;;;49.38;26.83;;;9.50;98.70;;;;;;5051279;28;20057;-78
2021/11/13 04:44:31;;;;;;;39.72;23.90;;;9.50;98.70;;;;;;5054298;28;20021;-78
2021/11/13 04:46:56;;;;;;;55.25;28.95;;;9.50;98.70;;;;;;5055326;28;20190;-78
2021/11/13 04:49:22;;;;;;;51.13;26.35;;;9.50;98.70;;;;;;5055103;28;20033;-78
2021/11/13 04:51:48;;;;;;;46.55;23.02;;;9.50;98.70;;;;;;5053716;28;20029;-78
2021/11/13 04:54:13;;;;;;;43.00;23.38;;;9.50;98.70;;;;;;5054954;28;20500;-78
2021/11/13 04:56:39;;;;;;;54.65;27.83;;;9.50;98.60;;;;;;5052752;28;20036;-78
2021/11/13 04:59:06;;;;;;;46.08;26.70;;;9.50;98.60;;;;;;5054536;28;20055;-78
2021/11/13 05:01:31;;;;;;;43.97;24.67;;;9.60;98.70;;;;;;5054411;28;20105;-78
2021/11/13 05:03:57;;;;;;;46.35;25.42;;;9.60;98.70;;;;;;5052991;28;20456;-78
2021/11/13 05:06:23;;;;;;;47.03;25.27;;;9.60;98.70;;;;;;5053303;28;20063;-78
2021/11/13 05:08:49;;;;;;;46.35;24.67;;;9.60;98.70;;;;;;5054005;28;20082;-78
2021/11/13 05:11:15;;;;;;;51.63;25.88;;;9.60;98.70;;;;;;5032692;28;20025;-78
2021/11/13 05:13:40;;;;;;;48.58;24.95;;;9.60;98.70;;;;;;5046249;28;20052;-78
2021/11/13 05:16:06;;;;;;;49.72;24.90;;;9.60;98.70;;;;;;5052745;28;20057;-78
2021/11/13 05:18:32;;;;;;;36.83;22.48;;;9.60;98.70;;;;;;5052446;28;20128;-78
2021/11/13 05:20:57;;;;;;;49.63;25.83;;;9.60;98.70;;;;;;5052725;28;20021;-78
2021/11/13 05:23:23;;;;;;;52.95;26.67;;;9.60;98.80;;;;;;5052509;28;20663;-78
2021/11/13 05:25:49;;;;;;;40.97;23.85;;;9.60;98.70;;;;;;5051921;28;20029;-78
2021/11/13 05:28:14;;;;;;;39.08;22.08;;;9.60;98.70;;;;;;5032325;28;20402;-78
2021/11/13 05:30:40;;;;;;;48.67;23.95;;;9.60;98.70;;;;;;5051656;28;20086;-78
2021/11/13 05:33:06;;;;;;;35.67;21.95;;;9.60;98.80;;;;;;5032718;28;20136;-78
2021/11/13 05:35:32;;;;;;;38.28;22.10;;;9.60;98.80;;;;;;5051797;28;20087;-78
2021/11/13 05:37:58;;;;;;;44.70;23.48;;;9.60;98.80;;;;;;5053913;28;20053;-78
2021/11/13 05:40:24;;;;;;;36.92;22.23;;;9.60;98.80;;;;;;5052684;28;20052;-78
2021/11/13 05:42:51;;;;;;;36.13;21.38;;;9.60;98.80;;;;;;5054140;28;20024;-78
2021/11/13 05:45:17;;;;;;;41.05;23.20;;;9.60;98.80;;;;;;5052749;28;20115;-78
2021/11/13 05:47:43;;;;;;;32.17;20.42;;;9.60;98.90;;;;;;5054111;28;20111;-78
2021/11/13 05:50:12;;;;;;;40.35;20.70;;;9.60;98.90;;;;;;5053098;28;20049;-77
2021/11/13 05:52:40;;;;;;;37.35;21.05;;;9.60;98.90;;;;;;5052186;28;20512;-78
2021/11/13 05:55:06;;;;;;;30.88;19.95;;;9.70;98.90;;;;;;5032346;28;20556;-78
2021/11/13 05:57:32;;;;;;;36.65;21.52;;;9.70;98.90;;;;;;5047080;28;20037;-78
2021/11/13 05:59:58;;;;;;;32.83;19.67;;;9.70;99.00;;;;;;5053085;28;20045;-78
2021/11/13 06:02:23;;;;;;;32.65;20.23;;;9.70;99.20;;;;;;5015068;28;20029;-78
2021/11/13 06:04:50;;;;;;;28.48;17.98;;;9.70;99.20;;;;;;5048420;28;20044;-78
2021/11/13 06:07:15;;;;;;;35.35;21.17;;;9.70;98.90;;;;;;5050345;28;20059;-78
2021/11/13 06:09:42;;;;;;;27.50;17.92;;;9.70;98.90;;;;;;5050577;28;20041;-78
2021/11/13 06:12:08;;;;;;;32.00;18.13;;;9.70;98.90;;;;;;5050993;28;20547;-78
2021/11/13 06:14:34;;;;;;;40.35;21.60;;;9.70;98.90;;;;;;5042201;28;20045;-78
2021/11/13 06:17:00;;;;;;;37.85;21.33;;;9.70;98.90;;;;;;5050691;28;20029;-78
2021/11/13 06:19:25;;;;;;;30.95;18.55;;;9.70;98.90;;;;;;5050065;28;20509;-78
2021/11/13 06:21:51;;;;;;;33.25;19.13;;;9.70;98.90;;;;;;5047871;28;20033;-78
2021/11/13 06:24:17;;;;;;;30.60;19.45;;;9.70;98.90;;;;;;5048408;28;20104;-78
2021/11/13 06:26:43;;;;;;;40.20;21.17;;;9.70;98.90;;;;;;5050493;28;20040;-78
2021/11/13 06:29:08;;;;;;;35.10;19.77;;;9.70;98.90;;;;;;5030753;28;20025;-78
2021/11/13 06:31:34;;;;;;;32.42;18.50;;;9.70;98.90;;;;;;5048381;28;20036;-78
2021/11/13 06:34:00;;;;;;;29.20;16.92;;;9.70;98.90;;;;;;5052483;28;20097;-78
2021/11/13 06:36:26;;;;;;;29.98;18.15;;;9.70;98.90;;;;;;5052334;28;20175;-78
2021/11/13 06:38:52;;;;;;;30.20;16.38;;;9.70;98.90;;;;;;5051191;28;20508;-78
2021/11/13 06:41:18;;;;;;;34.58;19.52;;;9.70;98.90;;;;;;5050411;28;20064;-78
2021/11/13 06:43:43;;;;;;;34.70;18.50;;;9.80;99.00;;;;;;5044101;28;20109;-78
2021/11/13 06:46:09;;;;;;;31.45;19.00;;;9.80;99.00;;;;;;5048670;28;20108;-78
2021/11/13 06:48:35;;;;;;;30.23;17.60;;;9.80;99.00;;;;;;5050935;28;20396;-76
2021/11/13 06:51:00;;;;;;;29.75;19.08;;;9.80;99.00;;;;;;5050752;28;20029;-76
2021/11/13 06:53:26;;;;;;;28.08;18.52;;;9.80;99.00;;;;;;5051369;28;20108;-76
2021/11/13 06:55:52;;;;;;;35.80;19.55;;;9.80;99.00;;;;;;5046936;28;20041;-76
2021/11/13 06:58:18;;;;;;;29.63;17.63;;;9.80;99.00;;;;;;5050142;28;20520;-76
2021/11/13 07:00:44;;;;;;;31.60;19.67;;;9.80;99.00;;;;;;5050844;28;20029;-76
2021/11/13 07:03:10;;;;;;;34.17;18.05;;;9.80;99.00;;;;;;5050039;28;20044;-76
2021/11/13 07:05:35;;;;;;;32.58;19.33;;;9.80;98.90;;;;;;5049865;28;20029;-76
2021/11/13 07:08:01;;;;;;;26.35;17.92;;;9.80;99.20;;;;;;5051366;28;20482;-76
2021/11/13 07:10:28;;;;;;;32.97;18.38;;;9.80;98.90;;;;;;5050070;28;20116;-76
2021/11/13 07:12:54;;;;;;;27.17;17.65;;;9.80;99.00;;;;;;5050301;28;20029;-76
2021/11/13 07:15:21;;;;;;;27.23;17.67;;;9.80;99.00;;;;;;5047199;28;20851;-76
2021/11/13 07:17:46;;;;;;;29.45;17.65;;;9.80;99.00;;;;;;5049630;28;20124;-76
2021/11/13 07:20:14;;;;;;;54.78;23.10;;;9.80;99.00;;;;;;5049430;28;20469;-76
2021/11/13 07:22:41;;;;;;;29.38;16.88;;;9.80;99.00;;;;;;5049236;28;20032;-76
2021/11/13 07:25:15;;;;;;;28.73;15.65;;;9.80;99.00;;;;;;5032326;28;20040;-76
2021/11/13 07:27:45;;;;;;;23.33;16.10;;;9.80;99.00;;;;;;5047894;28;20036;-76
2021/11/13 07:30:15;;;;;;;32.38;18.33;;;9.80;99.00;;;;;;5049967;28;20057;-76
2021/11/13 07:32:41;;;;;;;25.77;17.02;;;9.80;99.30;;;;;;5047963;28;20461;-76
2021/11/13 07:35:07;;;;;;;24.13;16.13;;;9.80;99.00;;;;;;5049887;28;20029;-76
2021/11/13 07:37:33;;;;;;;25.98;16.83;;;9.90;99.10;;;;;;5049561;28;20029;-76
2021/11/13 07:39:58;;;;;;;23.55;15.98;;;9.90;99.00;;;;;;5032630;28;20036;-76
2021/11/13 07:42:24;;;;;;;31.73;17.70;;;9.90;99.00;;;;;;5048814;28;20041;-76
2021/11/13 07:44:50;;;;;;;27.58;16.88;;;9.90;99.00;;;;;;5048775;28;20029;-76
2021/11/13 07:47:16;;;;;;;35.78;19.48;;;9.90;99.00;;;;;;5049379;28;20029;-76
2021/11/13 07:49:42;;;;;;;27.88;16.50;;;9.90;99.00;;;;;;5032468;28;20179;-77
2021/11/13 07:52:08;;;;;;;36.42;17.63;;;9.90;99.00;;;;;;5050920;28;20079;-77
2021/11/13 07:54:35;;;;;;;31.55;17.33;;;9.90;99.00;;;;;;5049437;28;20394;-77
2021/11/13 07:57:01;;;;;;;34.45;17.55;;;10.00;99.10;;;;;;5026739;28;20108;-77
2021/11/13 07:59:26;;;;;;;24.83;15.10;;;10.00;99.10;;;;;;5043563;28;20120;-77
2021/11/13 08:01:52;;;;;;;20.27;13.50;;;10.00;99.10;;;;;;5044410;28;20053;-77
2021/11/13 08:04:18;;;;;;;32.03;16.67;;;10.00;99.10;;;;;;5052037;28;20048;-77
2021/11/13 08:06:43;;;;;;;42.90;18.42;;;10.00;99.10;;;;;;5049782;28;20031;-77
2021/11/13 08:09:09;;;;;;;32.35;17.50;;;10.00;99.10;;;;;;5051145;28;20845;-77
2021/11/13 08:11:35;;;;;;;30.92;16.17;;;10.00;99.10;;;;;;5016715;28;20040;-77
2021/11/13 08:34:17;;;;;;;20.45;11.98;;;10.30;99.00;;;;;;5064891;22;20050;-78
2021/11/13 08:36:43;;;;;;;23.20;15.10;;;10.30;99.00;;;;;;5016399;28;20714;-77
2021/11/13 08:39:09;;;;;;;21.88;14.93;;;10.30;99.00;;;;;;5017323;28;20390;-78
2021/11/13 08:41:35;;;;;;;23.35;15.02;;;10.40;99.00;;;;;;5035489;28;20021;-78
2021/11/13 08:44:02;;;;;;;22.95;16.35;;;10.40;99.00;;;;;;5017645;28;20034;-77
2021/11/13 08:46:29;;;;;;;28.77;15.18;;;10.40;99.00;;;;;;5035258;28;20473;-80
2021/11/13 08:48:55;;;;;;;22.45;13.70;;;10.50;99.00;;;;;;5035268;28;20026;-78
2021/11/13 08:51:21;;;;;;;21.08;12.23;;;10.50;99.00;;;;;;5038605;28;20699;-77
2021/11/13 08:53:53;;;;;;;23.48;13.52;;;10.50;99.00;;;;;;5046175;28;20033;-77
2021/11/13 08:56:24;;;;;;;23.65;14.82;;;10.40;99.00;;;;;;5033863;28;20869;-77
2021/11/13 08:58:51;;;;;;;25.33;15.07;;;10.50;99.00;;;;;;5036650;28;20037;-77
2021/11/13 09:01:19;;;;;;;25.35;14.88;;;10.50;99.00;;;;;;5027382;28;20044;-77
2021/11/13 09:03:45;;;;;;;21.85;12.95;;;10.50;99.00;;;;;;5030217;28;20503;-80
2021/11/13 09:06:17;;;;;;;19.83;12.40;;;10.60;99.00;;;;;;5055187;28;20029;-80
2021/11/13 09:08:44;;;;;;;35.65;17.13;;;10.50;99.30;;;;;;5025193;28;20838;-81
2021/11/13 09:11:15;;;;;;;23.92;14.43;;;10.60;99.00;;;;;;5017136;28;20045;-78
2021/11/13 09:13:41;;;;;;;22.02;13.63;;;10.60;99.00;;;;;;5044477;28;20021;-78
2021/11/13 09:16:09;;;;;;;22.67;12.48;;;10.60;99.00;;;;;;5047048;28;20080;-78
2021/11/13 09:18:35;;;;;;;22.35;14.68;;;10.70;99.00;;;;;;5048612;28;20025;-79
2021/11/13 09:21:01;;;;;;;21.02;13.27;;;10.70;99.00;;;;;;5041614;28;20036;-78
2021/11/13 09:23:26;;;;;;;19.83;13.63;;;10.80;99.10;;;;;;5054142;28;20029;-78
2021/11/13 09:25:55;;;;;;;25.35;16.05;;;10.80;99.00;;;;;;5054500;28;20025;-80
2021/11/13 09:28:21;;;;;;;21.33;14.45;;;10.90;99.00;;;;;;5027078;28;20021;-79
2021/11/13 09:30:46;;;;;;;24.48;16.25;;;10.90;98.90;;;;;;5037783;28;20029;-80
2021/11/13 09:33:13;;;;;;;30.23;16.73;;;11.00;98.90;;;;;;5032305;28;20041;-80
2021/11/13 09:35:40;;;;;;;24.02;15.45;;;11.10;98.90;;;;;;5050155;28;20397;-80
2021/11/13 09:38:07;;;;;;;23.95;14.27;;;11.10;98.80;;;;;;5050201;28;20111;-79
2021/11/13 09:40:32;;;;;;;21.02;14.75;;;11.10;98.80;;;;;;5028342;28;20064;-79
2021/11/13 09:43:01;;;;;;;26.45;14.98;;;11.10;98.80;;;;;;5037070;28;20060;-79
2021/11/13 09:45:28;;;;;;;24.63;15.73;;;11.10;98.80;;;;;;5036977;28;20021;-79
2021/11/13 09:47:56;;;;;;;26.85;15.43;;;11.10;98.80;;;;;;5037004;28;20043;-79
2021/11/13 09:50:25;;;;;;;22.10;15.20;;;11.20;98.90;;;;;;5054588;28;20029;-79
2021/11/13 09:52:51;;;;;;;25.80;16.13;;;11.20;98.80;;;;;;5054684;28;20894;-79
2021/11/13 09:55:19;;;;;;;24.58;14.93;;;11.20;98.80;;;;;;5050681;28;20470;-79
2021/11/13 09:57:47;;;;;;;25.53;16.10;;;11.20;98.80;;;;;;5054314;28;20107;-79
2021/11/13 10:00:28;;;;;;;26.52;15.63;;;11.20;98.70;;;;;;5054248;28;20366;-79
2021/11/13 10:02:55;;;;;;;25.63;16.15;;;11.20;98.80;;;;;;5054517;28;20056;-79
2021/11/13 10:05:21;;;;;;;24.45;15.27;;;11.20;98.80;;;;;;5053867;28;20025;-79
2021/11/13 10:07:46;;;;;;;35.45;18.25;;;11.20;98.80;;;;;;5053923;28;20079;-79
2021/11/13 10:10:34;;;;;;;25.08;16.55;;;11.20;98.80;;;;;;5035035;28;20121;-79
2021/11/13 10:13:01;;;;;;;28.08;17.23;;;11.20;98.80;;;;;;5033790;28;20165;-79
2021/11/13 10:15:37;;;;;;;30.23;17.30;;;11.20;98.80;;;;;;5014923;28;20135;-79
2021/11/13 10:18:16;;;;;;;31.15;16.85;;;11.20;98.80;;;;;;5014912;28;20057;-79
2021/11/13 10:20:47;;;;;;;30.48;16.65;;;11.20;98.90;;;;;;5031550;28;20025;-79
2021/11/13 10:23:31;;;;;;;31.35;17.77;;;11.20;98.90;;;;;;5032214;28;20037;-79
2021/11/13 10:26:25;;;;;;;27.02;17.35;;;11.20;98.90;;;;;;5031956;28;20036;-79
2021/11/13 10:29:02;;;;;;;27.52;16.83;;;11.20;98.90;;;;;;5029012;28;20054;-79
2021/11/13 10:31:34;;;;;;;28.50;17.58;;;11.20;98.90;;;;;;5032880;28;20093;-79
2021/11/13 10:34:04;;;;;;;32.08;19.05;;;11.20;98.90;;;;;;5032123;28;20045;-79
2021/11/13 10:36:33;;;;;;;33.97;19.80;;;11.20;98.90;;;;;;5033709;28;20025;-79
2021/11/13 10:39:21;;;;;;;29.55;17.17;;;11.20;98.90;;;;;;5051979;28;20029;-79
2021/11/13 10:41:48;;;;;;;28.15;16.23;;;11.30;99.00;;;;;;5052076;28;20355;-79
2021/11/13 10:44:16;;;;;;;37.35;19.00;;;11.30;98.90;;;;;;5043424;28;20021;-79
2021/11/13 10:46:44;;;;;;;31.25;17.52;;;11.30;98.90;;;;;;5053371;28;20021;-79
2021/11/13 10:49:10;;;;;;;30.77;18.23;;;11.40;99.20;;;;;;5053797;28;20025;-79
2021/11/13 10:51:38;;;;;;;39.85;19.33;;;11.40;99.00;;;;;;5035620;28;20040;-79
2021/11/13 10:54:15;;;;;;;38.85;19.92;;;11.40;98.90;;;;;;5053485;28;20017;-79
2021/11/13 10:57:06;;;;;;;29.27;17.73;;;11.50;99.00;;;;;;5053351;28;20432;-79
2021/11/13 10:59:38;;;;;;;24.08;15.45;;;11.50;98.90;;;;;;5053646;28;20135;-79
2021/11/13 11:02:07;;;;;;;35.28;19.65;;;11.50;98.90;;;;;;5053285;28;20025;-79
2021/11/13 11:04:36;;;;;;;36.10;18.92;;;11.50;98.90;;;;;;5052761;28;20092;-79
2021/11/13 11:07:08;;;;;;;;;;;11.50;98.90;;;;;;5052631;28;20104;-79
2021/11/13 11:10:08;;;;;;;33.88;19.85;;;11.60;98.90;;;;;;5052563;28;20315;-79
2021/11/13 11:12:35;;;;;;;28.13;18.05;;;11.50;99.00;;;;;;5035610;28;20052;-79
2021/11/13 11:15:06;;;;;;;29.83;18.77;;;11.50;99.00;;;;;;5015418;28;20037;-79
2021/11/13 11:17:32;;;;;;;25.85;17.70;;;11.50;99.00;;;;;;5050575;28;20033;-79
2021/11/13 11:20:10;;;;;;;29.92;18.25;;;11.50;99.00;;;;;;5033504;28;20485;-79
2021/11/13 11:22:36;;;;;;;31.83;18.90;;;11.50;99.00;;;;;;5032908;28;20470;-79
2021/11/13 11:25:08;;;;;;;40.03;20.67;;;11.50;99.00;;;;;;5032389;28;20036;-79
2021/11/13 11:27:40;;;;;;;37.42;20.52;;;11.50;99.00;;;;;;5050423;28;20025;-79
2021/11/13 11:30:13;;;;;;;31.75;19.52;;;11.50;99.00;;;;;;5052993;28;20817;-79
2021/11/13 11:32:42;;;;;;;41.33;23.17;;;11.50;99.10;;;;;;5053030;28;20025;-79
2021/11/13 11:35:09;;;;;;;32.47;21.73;;;11.50;99.10;;;;;;5035143;28;20064;-79
2021/11/13 11:37:38;;;;;;;34.30;21.30;;;11.50;99.40;;;;;;5035026;28;20035;-79
2021/11/13 11:40:08;;;;;;;52.15;26.30;;;11.50;99.10;;;;;;5035031;28;20078;-79
2021/11/13 11:42:34;;;;;;;34.63;21.52;;;11.50;99.10;;;;;;5035322;28;20025;-79
2021/11/13 11:45:01;;;;;;;38.28;21.77;;;11.50;99.10;;;;;;5034052;28;20025;-79
2021/11/13 11:47:32;;;;;;;30.92;19.98;;;11.50;99.10;;;;;;5022612;28;20029;-78
2021/11/13 11:50:02;;;;;;;33.85;21.15;;;11.50;99.20;;;;;;5022123;28;20029;-79
2021/11/13 11:52:30;;;;;;;47.63;25.05;;;11.50;99.20;;;;;;5022590;28;20037;-79
2021/11/13 11:54:57;;;;;;;42.75;24.27;;;11.50;99.20;;;;;;5039001;28;20029;-79
2021/11/13 11:57:35;;;;;;;47.13;25.13;;;11.60;99.20;;;;;;5056346;28;20060;-79
2021/11/13 12:00:14;;;;;;;38.00;24.20;;;11.60;99.30;;;;;;5038682;28;20087;-79
2021/11/13 12:02:42;;;;;;;;;;;11.70;99.30;;;;;;5056905;28;20283;-79
2021/11/13 12:05:13;;;;;;;37.08;22.77;;;11.80;99.20;;;;;;5056634;28;20353;-79
2021/11/13 12:07:40;;;;;;;31.95;22.70;;;11.80;99.20;;;;;;5038683;28;20071;-79
2021/11/13 12:10:22;;;;;;;35.08;21.48;;;11.90;99.10;;;;;;5038676;28;20033;-79
2021/11/13 12:13:03;;;;;;;37.03;22.05;;;12.00;99.00;;;;;;5056378;28;20107;-79
2021/11/13 12:15:31;;;;;;;37.40;22.52;;;12.00;99.00;;;;;;5056443;28;20025;-79
2021/11/13 12:18:12;;;;;;;33.28;22.08;;;12.10;99.00;;;;;;5038485;28;20029;-79
2021/11/13 12:20:38;;;;;;;32.55;20.13;;;12.10;99.00;;;;;;5038371;28;20032;-79
2021/11/13 12:23:16;;;;;;;42.60;23.42;;;12.10;99.00;;;;;;5021924;28;20033;-79
2021/11/13 12:26:05;;;;;;;35.20;21.92;;;12.10;99.00;;;;;;5056329;28;20021;-79
2021/11/13 12:28:31;;;;;;;;;;;12.10;99.00;;;;;;5056814;28;20377;-79
2021/11/13 12:31:06;;;;;;;33.55;19.48;;;12.10;99.00;;;;;;5056324;28;19909;-79
2021/11/13 12:33:32;;;;;;;39.95;21.60;;;12.10;99.00;;;;;;5037930;28;20036;-79
2021/11/13 12:36:02;;;;;;;31.05;20.55;;;12.20;99.00;;;;;;5056220;28;20020;-79
2021/11/13 12:38:31;;;;;;;40.25;23.10;;;12.20;99.00;;;;;;5056015;28;20025;-79
2021/11/13 12:41:13;;;;;;;34.30;21.00;;;12.20;99.00;;;;;;5055185;28;20051;-79
2021/11/13 12:44:00;;;;;;;65.07;26.20;;;12.20;99.10;;;;;;5056152;28;20528;-79
2021/11/13 12:46:30;;;;;;;32.42;19.48;;;12.20;99.10;;;;;;5055941;28;20478;-79
2021/11/13 12:49:24;;;;;;;28.30;19.05;;;12.20;99.10;;;;;;5038176;28;20453;-79
2021/11/13 12:51:52;;;;;;;30.88;19.83;;;12.20;99.00;;;;;;5055732;28;20099;-79
2021/11/13 12:54:19;;;;;;;27.58;18.98;;;12.20;99.00;;;;;;5037866;28;20386;-79
2021/11/13 12:56:56;;;;;;;37.33;20.35;;;12.20;99.00;;;;;;5037607;28;20029;-79